ADDS METAR Data INFO
IDs: Format: Raw Decoded Include TAF

Data at: 0319 UTC 20 Jul 2018

KMLT 200253Z AUTO 00000KT 10SM CLR 15/12 A3010 RMK AO2 SLP197 T01500117 51019
KMLT 200153Z AUTO 00000KT 10SM CLR 17/13 A3008 RMK AO2 SLP191 T01720128
KMLT 200053Z AUTO 00000KT 10SM CLR 19/12 A3007 RMK AO2 SLP185 T01940117
KMLT 192353Z AUTO 00000KT 10SM CLR 22/11 A3004 RMK AO2 SLP177 T02220111 10267 20222 53007
KMLT 192253Z AUTO VRB03KT 10SM CLR 25/10 A3003 RMK AO2 SLP171 T02500100
KMLT 192153Z AUTO 30005KT 10SM CLR 26/09 A3002 RMK AO2 SLP168 T02610089
KMLT 192053Z AUTO VRB04KT 10SM CLR 26/09 A3002 RMK AO2 SLP170 T02610089 56007
KMLT 191953Z AUTO VRB06KT 10SM CLR 26/09 A3003 RMK AO2 SLP171 T02610094
KMLT 191853Z AUTO 26007KT 240V300 10SM CLR 25/08 A3003 RMK AO2 SLP174 T02500078
KMLT 191753Z AUTO 30007KT 10SM CLR 25/07 A3004 RMK AO2 SLP177 T02500072 10250 20178 55005
KMLT 191653Z AUTO VRB06KT 10SM CLR 24/07 A3004 RMK AO2 SLP176 T02390067
KMLT 191553Z AUTO VRB03KT 10SM CLR 23/07 A3005 RMK AO2 SLP180 T02330072
KMLT 191453Z AUTO 00000KT 10SM CLR 22/06 A3006 RMK AO2 SLP182 T02220061 50002
KMLT 191353Z AUTO VRB03KT 10SM CLR 22/08 A3006 RMK AO2 SLP183 T02170078
KMLT 191253Z AUTO VRB03KT 10SM CLR 19/09 A3005 RMK AO2 SLP181 T01940094
KMLT 191153Z AUTO 31007KT 10SM CLR 18/10 A3005 RMK AO2 SLP180 T01780100 10178 20100 51012
KMLT 191053Z AUTO 31004KT 10SM CLR 14/11 A3005 RMK AO2 SLP179 T01440111
KMLT 190953Z AUTO 30004KT 10SM CLR 12/10 A3004 RMK AO2 SLP175 T01170100
KMLT 190853Z AUTO 00000KT 10SM CLR 10/09 A3002 RMK AO2 SLP168 T01000089 53010
KMLT 190753Z AUTO 00000KT 10SM CLR 10/09 A3000 RMK AO2 SLP162 T01000089
KMLT 190653Z AUTO 00000KT 10SM CLR 11/09 A3000 RMK AO2 SLP161 T01110094
KMLT 190553Z AUTO 00000KT 10SM CLR 12/11 A2999 RMK AO2 SLP158 T01220106 10206 20122 53011
KMLT 190453Z AUTO 00000KT 10SM CLR 13/11 A2998 RMK AO2 SLP155 T01280106 402330128
KMLT 190353Z AUTO 32004KT 10SM CLR 15/11 A2996 RMK AO2 SLP150 T01500106
KMLT 190253Z AUTO 32004KT 10SM CLR 16/11 A2995 RMK AO2 SLP147 T01560106 51016
KMLT 190153Z AUTO 33004KT 10SM CLR 17/11 A2994 RMK AO2 SLP143 T01670106
KMLT 190053Z AUTO 29004KT 10SM CLR 18/10 A2993 RMK AO2 SLP140 T01780100
KMLT 182353Z AUTO 31007KT 10SM BKN060 21/10 A2991 RMK AO2 SLP130 T02060100 10233 20206 53013
KMLT 182253Z AUTO 33007KT 10SM SCT060 22/09 A2989 RMK AO2 SLP123 T02220094
KMLT 182153Z AUTO 30008G15KT 10SM CLR 23/09 A2987 RMK AO2 SLP118 T02280094
KMLT 182053Z AUTO 31010KT 10SM CLR 23/09 A2987 RMK AO2 SLP117 T02330094 53007
KMLT 181953Z AUTO 30009KT 10SM SCT050 23/10 A2986 RMK AO2 SLP115 T02280100
KMLT 181853Z AUTO 27009G17KT 10SM BKN044 23/11 A2985 RMK AO2 SLP112 T02280111
KMLT 181753Z AUTO 29012G20KT 10SM BKN042 22/12 A2985 RMK AO2 SLP110 T02170117 10222 20189 52005
KMLT 181653Z AUTO 30010G17KT 230V320 10SM FEW050 22/13 A2984 RMK AO2 SLP108 T02220128
KMLT 181553Z AUTO 31013G16KT 10SM BKN040 OVC050 21/13 A2984 RMK AO2 SLP107 T02110133